Time;durP1;ratioP1;P1;durP2;ratioP2;P2;SDS_P1;SDS_P2;PMS_P1;PMS_P2;Temp;Humidity;BMP_temperature;BMP_pressure;BME280_temperature;BME280_humidity;BME280_pressure;Samples;Min_cycle;Max_cycle;Signal;HPM_P1;HPM_P2
2022/11/26 00:00:44;;;;;;;15.43;10.23;;;5.90;99.90;;;;;;5054960;28;20058;-74
2022/11/26 00:03:11;;;;;;;16.55;10.18;;;5.90;99.90;;;;;;5098342;27;20040;-71
2022/11/26 00:05:38;;;;;;;17.63;10.90;;;5.80;99.90;;;;;;5063759;28;20037;-72
2022/11/26 00:08:13;;;;;;;;;;;5.80;99.90;;;;;;5056924;28;20041;-74
2022/11/26 00:10:39;;;;;;;28.23;11.43;;;5.80;99.90;;;;;;5050485;28;19982;-72
2022/11/26 00:13:14;;;;;;;27.02;10.18;;;5.80;99.90;;;;;;5056646;28;21940;-72
2022/11/26 00:15:40;;;;;;;35.72;11.80;;;5.80;99.90;;;;;;5067963;28;20051;-72
2022/11/26 00:18:06;;;;;;;36.55;11.80;;;5.80;99.90;;;;;;5063805;28;20606;-72
2022/11/26 00:20:31;;;;;;;25.30;11.82;;;5.80;99.90;;;;;;5068314;28;20043;-72
2022/11/26 00:23:03;;;;;;;26.08;10.95;;;5.90;99.90;;;;;;5063518;28;20349;-72
2022/11/26 00:25:50;;;;;;;13.88;10.88;;;5.80;99.90;;;;;;5067504;28;20056;-72
2022/11/26 00:28:18;;;;;;;;;;;5.90;99.90;;;;;;5059553;28;20048;-73
2022/11/26 00:30:44;;;;;;;21.55;11.32;;;5.80;99.90;;;;;;5063342;28;20333;-72
2022/11/26 00:33:10;;;;;;;27.75;11.50;;;5.80;99.90;;;;;;5066339;28;20052;-72
2022/11/26 00:35:36;;;;;;;18.73;11.45;;;5.80;99.90;;;;;;5061692;28;20395;-72
2022/11/26 00:38:01;;;;;;;16.58;11.27;;;5.80;99.90;;;;;;5068318;28;20403;-73
2022/11/26 00:40:32;;;;;;;13.38;10.35;;;5.80;99.90;;;;;;5071422;28;20504;-72
2022/11/26 00:42:58;;;;;;;33.95;12.38;;;5.80;99.90;;;;;;5063424;28;20052;-72
2022/11/26 00:45:26;;;;;;;22.48;10.15;;;5.80;99.90;;;;;;5067279;28;20055;-73
2022/11/26 00:47:56;;;;;;;23.98;11.40;;;5.70;99.90;;;;;;5048853;28;20156;-72
2022/11/26 00:50:25;;;;;;;12.00;10.73;;;5.70;99.90;;;;;;5058500;28;20052;-72
2022/11/26 00:52:53;;;;;;;15.48;10.90;;;5.60;99.90;;;;;;5065205;28;20061;-72
2022/11/26 00:55:36;;;;;;;14.73;10.68;;;5.60;99.90;;;;;;5090695;28;20132;-72
2022/11/26 00:58:02;;;;;;;15.23;9.88;;;5.60;99.90;;;;;;5076608;28;20040;-72
2022/11/26 01:00:32;;;;;;;15.13;10.38;;;5.60;99.90;;;;;;5059175;28;20472;-73
2022/11/26 01:02:57;;;;;;;15.40;10.82;;;5.50;99.90;;;;;;5059536;28;20095;-72
2022/11/26 01:05:29;;;;;;;16.52;11.73;;;5.50;99.90;;;;;;5049465;28;20607;-72
2022/11/26 01:07:57;;;;;;;22.08;10.57;;;5.50;99.90;;;;;;5061472;28;20558;-72
2022/11/26 01:10:25;;;;;;;13.30;9.73;;;5.60;99.90;;;;;;5063836;28;20415;-72
2022/11/26 01:12:52;;;;;;;15.15;11.57;;;5.50;99.90;;;;;;5062865;28;20480;-72
2022/11/26 01:15:19;;;;;;;16.38;12.07;;;5.50;99.90;;;;;;5067344;28;20036;-73
2022/11/26 01:17:45;;;;;;;16.60;11.20;;;5.50;99.90;;;;;;5049484;28;20051;-72
2022/11/26 01:20:22;;;;;;;16.85;11.65;;;5.50;99.90;;;;;;5064302;28;20052;-72
2022/11/26 01:22:49;;;;;;;16.33;11.90;;;5.50;99.90;;;;;;5064381;28;20101;-73
2022/11/26 01:25:15;;;;;;;15.48;11.00;;;5.50;99.90;;;;;;5059844;28;20044;-72
2022/11/26 01:27:41;;;;;;;15.50;11.20;;;5.50;99.90;;;;;;5061635;28;20036;-71
2022/11/26 01:30:33;;;;;;;17.08;12.45;;;5.50;99.90;;;;;;5066312;28;20036;-70
2022/11/26 01:32:59;;;;;;;17.77;12.43;;;5.50;99.90;;;;;;5047979;28;20084;-71
2022/11/26 01:35:26;;;;;;;13.98;10.40;;;5.50;99.90;;;;;;5052268;28;20589;-71
2022/11/26 01:37:52;;;;;;;19.17;11.98;;;5.50;99.90;;;;;;5056416;28;20053;-70
2022/11/26 01:40:24;;;;;;;18.92;11.00;;;5.40;99.90;;;;;;5052889;28;20052;-71
2022/11/26 01:43:14;;;;;;;14.88;11.25;;;5.40;99.90;;;;;;5050146;28;20133;-71
2022/11/26 01:45:40;;;;;;;14.60;10.48;;;5.40;99.90;;;;;;5052353;28;20055;-71
2022/11/26 01:48:29;;;;;;;14.48;11.68;;;5.40;99.90;;;;;;5065611;28;20040;-71
2022/11/26 01:51:01;;;;;;;15.93;11.63;;;5.40;99.90;;;;;;5063754;28;20132;-71
2022/11/26 01:53:39;;;;;;;16.75;10.65;;;5.30;99.90;;;;;;5066299;28;20045;-71
2022/11/26 01:56:26;;;;;;;14.10;10.05;;;5.30;99.90;;;;;;5093684;27;20075;-71
2022/11/26 01:59:00;;;;;;;;;;;5.30;99.90;;;;;;5062571;28;20078;-71
2022/11/26 02:01:26;;;;;;;16.63;11.13;;;5.20;99.90;;;;;;5061659;28;20003;-71
2022/11/26 02:04:04;;;;;;;15.73;10.18;;;5.20;99.90;;;;;;5088309;28;20348;-71
2022/11/26 02:06:32;;;;;;;14.43;10.48;;;5.20;99.90;;;;;;5063997;28;20036;-70
2022/11/26 02:09:04;;;;;;;19.65;12.32;;;5.20;99.90;;;;;;5066298;28;20048;-71
2022/11/26 02:11:30;;;;;;;21.52;12.75;;;5.10;99.90;;;;;;5056209;28;20032;-71
2022/11/26 02:14:04;;;;;;;20.45;12.05;;;5.20;99.90;;;;;;5063608;28;20048;-71
2022/11/26 02:16:57;;;;;;;18.48;13.05;;;5.10;99.90;;;;;;5059287;28;20174;-70
2022/11/26 02:19:31;;;;;;;19.98;12.27;;;5.20;99.90;;;;;;5047109;28;20462;-71
2022/11/26 02:22:11;;;;;;;18.75;12.30;;;5.10;99.90;;;;;;5059429;28;20135;-71
2022/11/26 02:25:17;;;;;;;23.27;13.02;;;5.10;99.90;;;;;;5065647;28;20073;-71
2022/11/26 02:28:14;;;;;;;21.77;12.98;;;5.10;99.90;;;;;;5054588;28;20407;-71
2022/11/26 02:30:55;;;;;;;;;;;5.10;99.90;;;;;;5047512;28;20037;-71
2022/11/26 02:33:29;;;;;;;22.90;14.50;;;5.20;99.90;;;;;;5048239;28;20014;-71
2022/11/26 02:36:00;;;;;;;24.50;15.48;;;5.30;99.90;;;;;;5050630;28;20051;-71
2022/11/26 02:38:31;;;;;;;25.25;14.68;;;5.40;99.90;;;;;;5067527;28;20052;-71
2022/11/26 02:40:58;;;;;;;23.58;14.15;;;5.40;99.90;;;;;;5064083;28;20040;-71
2022/11/26 02:43:25;;;;;;;26.25;14.48;;;5.40;99.90;;;;;;5070617;28;20068;-71
2022/11/26 02:45:58;;;;;;;19.48;14.02;;;5.40;99.90;;;;;;5069381;28;20033;-71
2022/11/26 02:48:30;;;;;;;23.90;14.30;;;5.40;99.90;;;;;;5068744;28;20040;-71
2022/11/26 02:51:00;;;;;;;21.60;14.90;;;5.40;99.90;;;;;;5066708;28;20565;-71
2022/11/26 02:53:29;;;;;;;23.83;14.00;;;5.50;99.90;;;;;;5066788;28;20399;-71
2022/11/26 02:56:14;;;;;;;23.25;14.32;;;5.50;99.90;;;;;;5058673;28;20376;-71
2022/11/26 02:58:40;;;;;;;20.40;13.63;;;5.50;99.90;;;;;;5066927;28;20051;-71
2022/11/26 03:01:16;;;;;;;29.65;16.20;;;5.50;99.90;;;;;;5077050;28;20428;-71
2022/11/26 03:03:47;;;;;;;22.67;14.88;;;5.50;99.90;;;;;;5068119;28;20049;-71
2022/11/26 03:06:15;;;;;;;25.35;14.70;;;5.50;99.90;;;;;;5067292;28;20084;-71
2022/11/26 03:08:42;;;;;;;;;;;5.50;99.90;;;;;;5067052;28;20048;-71
2022/11/26 03:11:07;;;;;;;27.83;15.00;;;5.50;99.90;;;;;;5066837;28;19927;-71
2022/11/26 03:13:33;;;;;;;23.88;13.02;;;5.50;99.90;;;;;;5069629;28;20045;-71
2022/11/26 03:15:59;;;;;;;25.67;14.50;;;5.50;99.90;;;;;;5069398;28;20889;-71
2022/11/26 03:18:24;;;;;;;19.75;13.73;;;5.50;99.90;;;;;;5069352;28;20395;-71
2022/11/26 03:20:50;;;;;;;27.08;14.55;;;5.50;99.90;;;;;;5062110;28;20471;-71
2022/11/26 03:23:16;;;;;;;20.80;14.15;;;5.50;99.90;;;;;;5063989;28;20069;-71
2022/11/26 03:25:41;;;;;;;22.33;13.57;;;5.50;99.90;;;;;;5053547;28;20033;-71
2022/11/26 03:28:07;;;;;;;24.95;14.07;;;5.50;99.90;;;;;;5053892;28;20115;-71
2022/11/26 03:30:33;;;;;;;23.27;15.15;;;5.50;99.90;;;;;;5066926;28;20048;-71
2022/11/26 03:32:58;;;;;;;22.48;14.98;;;5.40;99.90;;;;;;5068615;28;20533;-71
2022/11/26 03:35:24;;;;;;;22.90;15.05;;;5.40;99.90;;;;;;5068358;28;20068;-71
2022/11/26 03:37:50;;;;;;;24.20;15.15;;;5.40;99.90;;;;;;5051692;28;20039;-71
2022/11/26 03:40:16;;;;;;;25.75;14.85;;;5.40;99.90;;;;;;5063540;28;20115;-71
2022/11/26 03:42:42;;;;;;;23.10;13.73;;;5.40;99.90;;;;;;5066305;28;20148;-71
2022/11/26 03:45:08;;;;;;;20.52;14.50;;;5.30;99.90;;;;;;5069681;28;20037;-71
2022/11/26 03:47:34;;;;;;;23.65;14.57;;;5.30;99.90;;;;;;5066159;28;20102;-70
2022/11/26 03:50:00;;;;;;;23.00;14.05;;;5.20;99.90;;;;;;5056333;28;20435;-73
2022/11/26 03:52:25;;;;;;;21.40;14.32;;;5.30;99.90;;;;;;5057815;28;20049;-73
2022/11/26 03:54:51;;;;;;;26.27;14.30;;;5.20;99.90;;;;;;5069032;28;20048;-73
2022/11/26 03:57:17;;;;;;;22.55;14.48;;;5.20;99.90;;;;;;5067709;28;20544;-73
2022/11/26 03:59:42;;;;;;;26.92;14.07;;;5.20;99.90;;;;;;5064983;28;20041;-73
2022/11/26 04:02:08;;;;;;;40.75;14.45;;;5.20;99.90;;;;;;5066641;28;20431;-73
2022/11/26 04:04:34;;;;;;;19.40;12.48;;;5.10;99.90;;;;;;5058465;28;20037;-73
2022/11/26 04:07:00;;;;;;;62.42;14.65;;;5.10;99.90;;;;;;5057060;28;20063;-73
2022/11/26 04:09:25;;;;;;;17.70;12.02;;;5.00;99.90;;;;;;5064353;28;20040;-72
2022/11/26 04:11:51;;;;;;;17.60;12.10;;;4.90;99.90;;;;;;5061265;28;20047;-73
2022/11/26 04:14:17;;;;;;;23.55;12.95;;;4.90;99.90;;;;;;5085389;28;20067;-73
2022/11/26 04:16:42;;;;;;;19.00;12.27;;;4.90;99.90;;;;;;5065957;28;20125;-73
2022/11/26 04:19:08;;;;;;;20.60;14.07;;;4.90;99.90;;;;;;5063362;28;20041;-73
2022/11/26 04:21:33;;;;;;;21.85;14.82;;;4.90;99.90;;;;;;5060205;28;20037;-73
2022/11/26 04:23:59;;;;;;;23.80;15.63;;;4.90;99.90;;;;;;5061431;28;20072;-73
2022/11/26 04:26:25;;;;;;;21.75;15.23;;;5.00;99.90;;;;;;5054178;28;20419;-73
2022/11/26 04:28:50;;;;;;;24.95;15.95;;;5.00;99.90;;;;;;5069042;28;20040;-73
2022/11/26 04:31:17;;;;;;;22.88;15.23;;;5.10;99.90;;;;;;5076397;28;20045;-73
2022/11/26 04:33:42;;;;;;;23.30;16.52;;;5.20;99.90;;;;;;5064670;28;20072;-73
2022/11/26 04:36:12;;;;;;;28.08;17.15;;;5.20;99.90;;;;;;5067820;28;20098;-73
2022/11/26 04:38:38;;;;;;;25.02;16.45;;;5.20;99.90;;;;;;5101157;28;20105;-73
2022/11/26 04:41:04;;;;;;;29.30;16.05;;;5.20;99.90;;;;;;5061928;28;20398;-71
2022/11/26 04:43:29;;;;;;;24.73;16.27;;;5.20;99.90;;;;;;5059029;28;20155;-73
2022/11/26 04:45:55;;;;;;;23.75;16.70;;;5.20;99.90;;;;;;5055073;28;20127;-73
2022/11/26 04:48:21;;;;;;;27.65;16.88;;;5.30;99.90;;;;;;5062834;28;20050;-73
2022/11/26 04:50:48;;;;;;;25.70;16.27;;;5.30;99.90;;;;;;5063249;28;20684;-73
2022/11/26 04:53:14;;;;;;;27.05;17.55;;;5.30;99.90;;;;;;5066211;28;20053;-73
2022/11/26 04:55:39;;;;;;;24.50;17.85;;;5.30;99.90;;;;;;5059557;28;20064;-73
2022/11/26 04:58:05;;;;;;;31.70;18.95;;;5.30;99.90;;;;;;5055225;28;20045;-73
2022/11/26 05:00:31;;;;;;;30.27;18.40;;;5.30;99.90;;;;;;5049118;28;20095;-73
2022/11/26 05:02:56;;;;;;;34.63;19.98;;;5.30;99.90;;;;;;5065828;28;20036;-73
2022/11/26 05:05:22;;;;;;;33.15;19.92;;;5.30;99.90;;;;;;5067196;28;20048;-73
2022/11/26 05:07:48;;;;;;;33.70;20.15;;;5.30;99.90;;;;;;5066224;28;20045;-73
2022/11/26 05:10:13;;;;;;;24.95;17.08;;;5.30;99.90;;;;;;5065043;28;20383;-73
2022/11/26 05:12:39;;;;;;;29.20;16.52;;;5.20;99.90;;;;;;5087151;28;20138;-73
2022/11/26 05:15:05;;;;;;;29.55;17.63;;;5.20;99.90;;;;;;5065127;28;20116;-73
2022/11/26 05:17:31;;;;;;;24.67;15.93;;;5.30;99.90;;;;;;5056628;28;20506;-73
2022/11/26 05:19:57;;;;;;;25.40;16.02;;;5.20;99.90;;;;;;5061716;28;20041;-73
2022/11/26 05:22:22;;;;;;;29.17;15.88;;;5.30;99.90;;;;;;5064544;28;20044;-73
2022/11/26 05:24:51;;;;;;;26.70;16.27;;;5.20;99.90;;;;;;5063179;28;20048;-73
2022/11/26 05:27:16;;;;;;;25.80;16.42;;;5.20;99.90;;;;;;5078193;28;20117;-73
2022/11/26 05:29:42;;;;;;;25.85;17.15;;;5.20;99.90;;;;;;5067315;28;20036;-73
2022/11/26 05:32:08;;;;;;;28.73;16.77;;;5.20;99.90;;;;;;5065797;28;20043;-73
2022/11/26 05:34:33;;;;;;;25.08;16.70;;;5.20;99.90;;;;;;5064076;28;20490;-73
2022/11/26 05:36:59;;;;;;;22.48;16.05;;;5.20;99.90;;;;;;5064630;28;21024;-73
2022/11/26 05:39:24;;;;;;;24.98;15.95;;;5.10;99.90;;;;;;5067548;28;20109;-73
2022/11/26 05:41:50;;;;;;;24.27;15.43;;;5.10;99.90;;;;;;5056451;28;20041;-73
2022/11/26 05:44:15;;;;;;;21.73;15.32;;;5.10;99.90;;;;;;5053410;28;20411;-73
2022/11/26 05:46:42;;;;;;;19.30;14.68;;;5.10;99.90;;;;;;5061483;28;20064;-73
2022/11/26 05:49:08;;;;;;;21.67;14.80;;;5.10;99.90;;;;;;5059973;28;20060;-73
2022/11/26 05:51:34;;;;;;;19.80;13.68;;;5.10;99.90;;;;;;5063884;28;20048;-73
2022/11/26 05:53:59;;;;;;;24.05;14.32;;;5.10;99.90;;;;;;5058883;28;20043;-73
2022/11/26 05:56:25;;;;;;;36.78;14.25;;;5.00;99.90;;;;;;5053448;28;20073;-73
2022/11/26 05:58:51;;;;;;;49.28;15.27;;;5.00;99.90;;;;;;5064728;28;20040;-73
2022/11/26 06:01:17;;;;;;;50.20;16.00;;;5.00;99.90;;;;;;5067311;28;20036;-73
2022/11/26 06:03:42;;;;;;;28.92;14.10;;;5.10;99.90;;;;;;5054741;28;20484;-72
2022/11/26 06:06:08;;;;;;;26.05;14.70;;;4.90;99.90;;;;;;5061465;28;20143;-73
2022/11/26 06:08:34;;;;;;;24.10;15.40;;;5.00;99.90;;;;;;5064906;28;20117;-73
2022/11/26 06:10:59;;;;;;;29.92;14.75;;;5.00;99.90;;;;;;5061568;28;20499;-73
2022/11/26 06:13:25;;;;;;;32.65;15.85;;;4.90;99.90;;;;;;5096744;28;20414;-73
2022/11/26 06:15:51;;;;;;;44.08;16.02;;;4.90;99.90;;;;;;5063104;28;20052;-73
2022/11/26 06:18:17;;;;;;;45.25;18.17;;;4.90;99.90;;;;;;5065874;28;20044;-73
2022/11/26 06:20:42;;;;;;;107.63;59.85;;;4.90;99.90;;;;;;5063563;28;20055;-73
2022/11/26 06:23:08;;;;;;;147.80;77.85;;;4.80;99.90;;;;;;5065838;28;20139;-73
2022/11/26 06:25:34;;;;;;;186.43;90.57;;;4.80;99.90;;;;;;5063670;28;20396;-73
2022/11/26 06:27:59;;;;;;;213.90;128.98;;;4.80;99.90;;;;;;5055805;28;20090;-73
2022/11/26 06:30:25;;;;;;;86.30;63.17;;;4.80;99.90;;;;;;5062735;28;20052;-73
2022/11/26 06:32:50;;;;;;;144.80;94.18;;;4.80;99.90;;;;;;5062227;28;20128;-73
2022/11/26 06:35:16;;;;;;;173.85;141.55;;;4.70;99.90;;;;;;5059574;28;20470;-73
2022/11/26 06:37:42;;;;;;;127.43;114.05;;;4.70;99.90;;;;;;5061060;28;20040;-73
2022/11/26 06:40:14;;;;;;;125.72;77.00;;;4.70;99.90;;;;;;5063090;28;20043;-73
2022/11/26 06:42:39;;;;;;;43.22;35.35;;;4.80;99.90;;;;;;5051845;28;20060;-73
2022/11/26 06:45:05;;;;;;;46.00;19.63;;;4.80;99.90;;;;;;5048811;28;20169;-73
2022/11/26 06:47:31;;;;;;;34.30;17.55;;;4.80;99.90;;;;;;5061275;28;20226;-73
2022/11/26 06:49:56;;;;;;;45.65;16.33;;;4.80;99.90;;;;;;5063761;28;20394;-73
2022/11/26 06:52:22;;;;;;;31.63;16.02;;;4.80;99.90;;;;;;5064587;28;20040;-75
2022/11/26 06:54:48;;;;;;;21.15;16.73;;;4.80;99.90;;;;;;5080824;28;20098;-71
2022/11/26 06:57:14;;;;;;;23.15;17.05;;;4.80;99.90;;;;;;5052913;28;20082;-73
2022/11/26 06:59:39;;;;;;;33.92;19.92;;;4.80;99.90;;;;;;5048483;28;20162;-73
2022/11/26 07:02:05;;;;;;;39.15;34.50;;;4.90;99.90;;;;;;5054729;28;20092;-73
2022/11/26 07:04:31;;;;;;;40.15;29.67;;;4.90;99.90;;;;;;5064352;28;20044;-72
2022/11/26 07:06:57;;;;;;;35.28;26.60;;;4.90;99.90;;;;;;5056840;28;20044;-73
2022/11/26 07:09:22;;;;;;;29.20;21.20;;;4.90;99.90;;;;;;5078892;28;20401;-73
2022/11/26 07:11:49;;;;;;;31.05;21.45;;;4.90;99.90;;;;;;5060839;28;20054;-73
2022/11/26 07:14:14;;;;;;;29.42;20.92;;;5.00;99.90;;;;;;5059694;28;20036;-73
2022/11/26 07:16:40;;;;;;;33.20;20.60;;;5.00;99.90;;;;;;5060027;28;20037;-71
2022/11/26 07:19:06;;;;;;;44.80;19.83;;;5.00;99.90;;;;;;5098960;28;20060;-72
2022/11/26 07:21:32;;;;;;;89.43;23.65;;;5.10;99.90;;;;;;5061169;28;20045;-72
2022/11/26 07:23:57;;;;;;;73.88;21.88;;;5.10;99.90;;;;;;5058970;28;20040;-72
2022/11/26 07:26:23;;;;;;;38.25;21.27;;;5.10;99.90;;;;;;5059289;28;20494;-70
2022/11/26 07:28:50;;;;;;;60.65;21.55;;;5.10;99.90;;;;;;5066447;28;20053;-71
2022/11/26 07:31:20;;;;;;;52.42;22.60;;;5.10;99.90;;;;;;5058193;28;20522;-71
2022/11/26 07:33:46;;;;;;;37.80;21.25;;;5.10;99.90;;;;;;5062508;28;20057;-71
2022/11/26 07:36:22;;;;;;;43.50;21.40;;;5.10;99.90;;;;;;5064709;28;20389;-71
2022/11/26 07:38:48;;;;;;;88.45;22.17;;;5.10;99.90;;;;;;5067566;28;20109;-71
2022/11/26 07:41:16;;;;;;;44.38;23.25;;;5.10;99.90;;;;;;5079012;28;20391;-71
2022/11/26 07:43:42;;;;;;;78.30;24.00;;;5.10;99.90;;;;;;5074612;28;20115;-71
2022/11/26 07:46:11;;;;;;;63.10;22.83;;;5.10;99.90;;;;;;5067732;28;20045;-71
2022/11/26 07:48:38;;;;;;;46.88;23.30;;;5.10;99.90;;;;;;5103100;28;20032;-71
2022/11/26 07:51:04;;;;;;;;;;;5.10;99.90;;;;;;5067716;28;20072;-71
2022/11/26 07:53:31;;;;;;;88.22;25.35;;;5.10;99.90;;;;;;5064540;28;20295;-71
2022/11/26 07:56:04;;;;;;;63.63;26.58;;;5.10;99.90;;;;;;5061941;28;20052;-71
2022/11/26 07:58:31;;;;;;;150.07;59.72;;;5.10;99.90;;;;;;5055824;28;20110;-71
2022/11/26 08:00:56;;;;;;;132.02;60.03;;;5.10;99.90;;;;;;5059530;28;20063;-70
2022/11/26 08:03:22;;;;;;;244.70;85.80;;;5.20;99.90;;;;;;5080181;28;20115;-70
2022/11/26 08:05:47;;;;;;;78.72;60.15;;;5.20;99.90;;;;;;5064578;28;20124;-71
2022/11/26 08:08:13;;;;;;;81.88;64.43;;;5.20;99.90;;;;;;5053595;28;20071;-71
2022/11/26 08:10:39;;;;;;;64.38;39.35;;;5.30;99.90;;;;;;5058927;28;20094;-71
2022/11/26 08:13:05;;;;;;;72.50;31.75;;;5.30;99.90;;;;;;5063807;28;20467;-71
2022/11/26 08:15:31;;;;;;;60.60;30.38;;;5.40;99.90;;;;;;5065771;28;20496;-70
2022/11/26 08:17:57;;;;;;;63.22;28.20;;;5.40;99.90;;;;;;5065609;28;20051;-70
2022/11/26 08:20:24;;;;;;;73.45;27.65;;;5.40;99.90;;;;;;5064294;28;20044;-70
2022/11/26 08:22:49;;;;;;;112.93;28.13;;;5.50;99.90;;;;;;5066602;28;20068;-71
2022/11/26 08:25:15;;;;;;;103.70;30.58;;;5.50;99.90;;;;;;5067598;28;20087;-75
2022/11/26 08:27:41;;;;;;;44.42;27.25;;;5.40;99.90;;;;;;5062932;28;20514;-75
2022/11/26 08:30:07;;;;;;;37.65;25.88;;;5.50;99.90;;;;;;5064871;28;20041;-74
2022/11/26 08:32:34;;;;;;;73.03;27.08;;;5.60;99.90;;;;;;5064746;28;20044;-79
2022/11/26 08:34:59;;;;;;;44.42;26.60;;;5.60;99.90;;;;;;5063626;28;20052;-77
2022/11/26 08:37:25;;;;;;;102.63;28.05;;;5.60;99.90;;;;;;5052702;28;20110;-78
2022/11/26 08:39:51;;;;;;;94.43;27.92;;;5.70;99.90;;;;;;5057549;28;20443;-75
2022/11/26 08:42:16;;;;;;;108.55;29.65;;;5.70;99.90;;;;;;5057981;28;20436;-73
2022/11/26 08:44:42;;;;;;;39.65;26.40;;;5.70;99.90;;;;;;5069485;28;20044;-72
2022/11/26 08:47:08;;;;;;;114.15;29.17;;;5.70;99.90;;;;;;5068504;28;20040;-72
2022/11/26 08:49:34;;;;;;;59.10;30.38;;;5.70;99.90;;;;;;5063522;28;20055;-71
2022/11/26 08:51:59;;;;;;;79.72;31.63;;;5.80;99.90;;;;;;5062316;28;20307;-73
2022/11/26 08:54:25;;;;;;;53.42;27.15;;;5.80;99.90;;;;;;5067119;28;20084;-73
2022/11/26 08:56:51;;;;;;;44.78;27.35;;;5.80;99.90;;;;;;5052672;28;20128;-74
2022/11/26 08:59:18;;;;;;;40.70;27.98;;;5.90;99.90;;;;;;5060949;28;20448;-75
2022/11/26 09:01:44;;;;;;;46.47;28.38;;;5.90;99.90;;;;;;5063274;28;20119;-75
2022/11/26 09:04:12;;;;;;;48.35;31.05;;;5.90;99.90;;;;;;5098343;28;20211;-73
2022/11/26 09:06:39;;;;;;;48.55;28.27;;;6.00;99.90;;;;;;5067238;28;20120;-73
2022/11/26 09:09:12;;;;;;;43.42;28.48;;;6.00;99.90;;;;;;5068116;28;20048;-78
2022/11/26 09:11:40;;;;;;;49.78;30.30;;;6.00;99.90;;;;;;5065436;28;20139;-74
2022/11/26 09:14:06;;;;;;;62.33;32.85;;;6.10;99.90;;;;;;5049300;28;20098;-78
2022/11/26 09:16:32;;;;;;;68.05;33.85;;;6.10;99.90;;;;;;5063928;28;20121;-75
2022/11/26 09:19:02;;;;;;;49.95;29.20;;;6.10;99.90;;;;;;5064143;28;20131;-76
2022/11/26 09:21:28;;;;;;;68.55;34.88;;;6.20;99.90;;;;;;5060829;28;20076;-77
2022/11/26 09:23:54;;;;;;;60.35;33.30;;;6.20;99.90;;;;;;5060163;28;20040;-73
2022/11/26 09:26:20;;;;;;;55.58;32.22;;;6.30;99.90;;;;;;5076945;28;20045;-75
2022/11/26 09:28:47;;;;;;;59.72;33.70;;;6.30;99.90;;;;;;5064062;28;20124;-75
2022/11/26 09:31:13;;;;;;;57.75;33.75;;;6.30;99.90;;;;;;5060371;28;20049;-74
2022/11/26 09:33:40;;;;;;;70.00;37.17;;;6.30;99.90;;;;;;5056331;28;20090;-74
2022/11/26 09:36:07;;;;;;;72.10;39.22;;;6.40;99.90;;;;;;5067270;28;20040;-75
2022/11/26 09:38:34;;;;;;;64.07;35.33;;;6.40;99.90;;;;;;5066186;28;20098;-75
2022/11/26 09:41:28;;;;;;;71.75;38.75;;;6.40;99.90;;;;;;5063737;28;20510;-72
2022/11/26 09:44:27;;;;;;;72.40;36.90;;;6.40;99.90;;;;;;5058503;28;20052;-75
2022/11/26 09:46:56;;;;;;;61.45;34.80;;;6.50;99.90;;;;;;5059365;28;20060;-73
2022/11/26 09:49:23;;;;;;;71.45;38.20;;;6.50;99.90;;;;;;5057513;28;20040;-75
2022/11/26 09:51:54;;;;;;;70.30;38.88;;;6.50;99.90;;;;;;5065844;28;20048;-74
2022/11/26 09:54:23;;;;;;;65.00;36.30;;;6.60;99.90;;;;;;5061702;28;20152;-71
2022/11/26 09:56:54;;;;;;;66.72;35.78;;;6.60;99.90;;;;;;5052433;28;20860;-72
2022/11/26 09:59:21;;;;;;;70.10;38.00;;;6.60;99.90;;;;;;5060020;28;20048;-72
2022/11/26 10:01:46;;;;;;;74.35;38.30;;;6.60;99.90;;;;;;5066030;28;20385;-73
2022/11/26 10:04:25;;;;;;;69.03;36.58;;;6.70;99.90;;;;;;5051796;28;20125;-72
2022/11/26 10:07:00;;;;;;;75.93;37.65;;;6.70;99.90;;;;;;5062273;28;20044;-73
2022/11/26 10:09:38;;;;;;;84.13;40.03;;;6.70;99.90;;;;;;5063525;28;20041;-74
2022/11/26 10:12:15;;;;;;;64.80;36.88;;;6.80;99.90;;;;;;5064873;28;20202;-73
2022/11/26 10:15:00;;;;;;;;;;;6.80;99.90;;;;;;5055965;28;20041;-75
2022/11/26 10:17:46;;;;;;;76.10;39.38;;;6.80;99.90;;;;;;5059802;28;20363;-74
2022/11/26 10:20:44;;;;;;;90.30;40.72;;;6.80;99.90;;;;;;5053038;28;20487;-73
2022/11/26 10:23:16;;;;;;;74.60;38.63;;;6.90;99.90;;;;;;5057671;28;20039;-72
2022/11/26 10:26:03;;;;;;;80.63;37.95;;;6.90;99.90;;;;;;5061162;28;20579;-72
2022/11/26 10:28:43;;;;;;;93.68;41.53;;;6.90;99.90;;;;;;5066347;28;20043;-72
2022/11/26 10:31:25;;;;;;;89.97;40.28;;;7.00;99.90;;;;;;5066986;28;20072;-71
2022/11/26 10:34:02;;;;;;;73.72;38.03;;;7.00;99.90;;;;;;5066071;28;20037;-71
2022/11/26 10:36:31;;;;;;;77.57;38.65;;;7.10;99.90;;;;;;5096413;28;20036;-72
2022/11/26 10:38:57;;;;;;;78.57;41.67;;;7.10;99.90;;;;;;5057255;28;20390;-72
2022/11/26 10:41:26;;;;;;;80.82;40.22;;;7.10;99.90;;;;;;5054888;28;20053;-74
2022/11/26 10:43:52;;;;;;;91.80;45.65;;;7.20;99.90;;;;;;5048040;28;20060;-73
2022/11/26 10:46:35;;;;;;;89.97;44.00;;;7.20;99.90;;;;;;5096969;28;20619;-72
2022/11/26 10:49:36;;;;;;;84.32;41.30;;;7.20;99.90;;;;;;5056383;28;20147;-73
2022/11/26 10:52:06;;;;;;;79.65;46.30;;;7.20;99.90;;;;;;5037849;28;20040;-73
2022/11/26 10:54:37;;;;;;;87.90;46.20;;;7.30;99.90;;;;;;5060116;28;20061;-73
2022/11/26 10:57:14;;;;;;;86.35;42.70;;;7.30;99.90;;;;;;5058747;28;20052;-73
2022/11/26 10:59:40;;;;;;;;;;;7.30;99.90;;;;;;5059516;28;20044;-73
2022/11/26 11:02:22;;;;;;;93.40;43.47;;;7.30;99.90;;;;;;5066011;28;19921;-72
2022/11/26 11:04:51;;;;;;;92.40;45.70;;;7.40;99.90;;;;;;5062079;28;20037;-76
2022/11/26 11:07:40;;;;;;;93.20;44.88;;;7.40;99.90;;;;;;5056895;28;20159;-75
2022/11/26 11:10:09;;;;;;;95.38;44.97;;;7.40;99.90;;;;;;5062558;28;20079;-76
2022/11/26 11:12:46;;;;;;;108.32;46.15;;;7.50;99.90;;;;;;5062980;28;20407;-73
2022/11/26 11:15:11;;;;;;;;;;;7.50;99.90;;;;;;5054463;28;20045;-76
2022/11/26 11:17:39;;;;;;;98.20;47.50;;;7.50;99.90;;;;;;5064257;28;20328;-75
2022/11/26 11:20:14;;;;;;;88.35;44.00;;;7.50;99.90;;;;;;5064972;28;20506;-73
2022/11/26 11:22:44;;;;;;;89.47;47.88;;;7.50;99.90;;;;;;5059245;28;20049;-73
2022/11/26 11:25:24;;;;;;;92.13;44.70;;;7.60;99.90;;;;;;5063389;28;20099;-71
2022/11/26 11:27:52;;;;;;;99.53;49.03;;;7.60;99.90;;;;;;5059068;28;20376;-76
2022/11/26 11:30:31;;;;;;;96.85;45.72;;;7.70;99.90;;;;;;5066243;28;20114;-73
2022/11/26 11:33:22;;;;;;;96.75;50.85;;;7.70;99.90;;;;;;5066961;28;20683;-73
2022/11/26 11:36:20;;;;;;;88.95;45.60;;;7.70;99.90;;;;;;5066940;28;20128;-73
2022/11/26 11:38:53;;;;;;;85.57;43.97;;;7.70;99.90;;;;;;5058112;28;20132;-73
2022/11/26 11:41:46;;;;;;;90.05;49.15;;;7.80;99.90;;;;;;5069876;28;20105;-73
2022/11/26 11:44:24;;;;;;;85.28;45.33;;;7.80;99.90;;;;;;5069893;28;20048;-73
2022/11/26 11:47:22;;;;;;;92.82;49.42;;;7.80;99.90;;;;;;5071230;28;20396;-73
2022/11/26 11:50:07;;;;;;;87.85;43.25;;;7.90;99.90;;;;;;5070176;28;20052;-72
2022/11/26 11:52:49;;;;;;;84.50;46.22;;;7.90;99.90;;;;;;5069328;28;20086;-73
2022/11/26 11:55:24;;;;;;;79.95;45.92;;;7.90;99.90;;;;;;5070058;28;20048;-73
2022/11/26 11:58:19;;;;;;;85.18;43.33;;;8.00;99.90;;;;;;5070118;28;20048;-73
2022/11/26 12:01:01;;;;;;;80.32;44.08;;;8.00;99.90;;;;;;5073084;28;20553;-73
2022/11/26 12:04:04;;;;;;;80.70;40.10;;;8.00;99.90;;;;;;5069147;28;20044;-73
2022/11/26 12:07:03;;;;;;;78.40;43.78;;;8.00;99.90;;;;;;5069011;28;20139;-73
2022/11/26 12:09:44;;;;;;;78.28;40.80;;;8.10;99.90;;;;;;5070422;28;20079;-73
2022/11/26 12:12:19;;;;;;;78.75;41.33;;;8.10;99.90;;;;;;5067855;28;20071;-73
2022/11/26 12:14:50;;;;;;;80.65;43.75;;;8.10;99.90;;;;;;5069222;28;20045;-73
2022/11/26 12:17:40;;;;;;;84.28;45.30;;;8.10;99.90;;;;;;5066927;28;20040;-73
2022/11/26 12:20:38;;;;;;;74.85;40.10;;;8.20;99.90;;;;;;5069171;28;20040;-73
2022/11/26 12:23:23;;;;;;;81.18;43.30;;;8.20;99.90;;;;;;5049618;28;20048;-73
2022/11/26 12:25:53;;;;;;;73.50;42.05;;;8.20;99.90;;;;;;5048017;28;20049;-73
2022/11/26 12:28:24;;;;;;;73.72;42.00;;;8.20;99.90;;;;;;5056407;28;20115;-73
2022/11/26 12:31:00;;;;;;;86.72;42.90;;;8.30;99.90;;;;;;5062665;28;20491;-73
2022/11/26 12:34:01;;;;;;;77.40;42.47;;;8.20;99.90;;;;;;5068204;28;20048;-73
2022/11/26 12:36:34;;;;;;;79.43;41.65;;;8.30;99.90;;;;;;5069535;28;20078;-73
2022/11/26 12:39:17;;;;;;;81.85;44.83;;;8.30;99.90;;;;;;5068702;28;20076;-73
2022/11/26 12:41:50;;;;;;;82.45;41.70;;;8.30;99.90;;;;;;5068449;28;20136;-73
2022/11/26 12:44:23;;;;;;;74.13;42.97;;;8.30;99.90;;;;;;5068737;28;20053;-73
2022/11/26 12:47:05;;;;;;;70.70;40.53;;;8.30;99.90;;;;;;5068918;28;20058;-73
2022/11/26 12:49:52;;;;;;;74.80;41.95;;;8.30;99.90;;;;;;5069648;28;20044;-73
2022/11/26 12:52:36;;;;;;;73.40;42.90;;;8.30;99.90;;;;;;5067432;28;20044;-74
2022/11/26 12:55:46;;;;;;;67.10;36.75;;;8.30;99.90;;;;;;5067442;28;20143;-74